Pagrindinis puslapis
METAR-TAF:

METAR-TAF

Oro uostai :

Limonas, Kosta Rika

platuma: 10-00N, ilguma: 083-03W, Aukštis: 5 m

Dabartinis oras

Ataskaita buvo paskelbta 4 valandos ir 50 minutes, ne 22:00 UTC
Ramus vėjas
Temperatūra 28°C
Drėgmė 74%
Slėgis 1011 hPa
Matomumas 10 km arba daugiau
nėra debesų žemiau 1500 m ir nėra kamuolinių lietaus debesų

METAR: MRLM 312200Z 00000KT CAVOK 28/23 A2985

Laikas: 20:50 (02:50 UTC)

Prognozė

Ataskaita buvo paskelbta 3 valandos ir 50 minutes, ne 23:00 UTC
Prognozė galioja nuo 01 metu 00 UTC su 01 metu 24 UTC
Vėjas 4 kt iš Vakarų/Pietvakarių
Matomumas 10 km arba daugiau
Mažai debesys ne aukštis 3000 ft
Laikinai
nuo 01 metu 06 UTC su 01 metu 12 UTC
dulksna
Tapsmas
nuo 01 metu 15 UTC su 01 metu 17 UTC
Vėjas 6 kt iš Rytų

TAF: MRLM 312300Z 0100/0124 25004KT 9999 FEW030 TX31/0119Z TN22/0111Z TEMPO 0106/0112 DZ BECMG 0115/0117 08006KT

Orai ataskaitas ir orų prognozės (METAR, TAF).

turimą stotys yra geltonos ir raudonos taškus žemėlapyje.

Perkelti pele per norėdami pamatyti stoties vardą.

Tada spustelėkite, norėdami matyti oro stebėjimo ir prognozės.

Norėdami pakeisti žemėlapį: spustelėkite ant žalios mygtukų su juodo kryžiaus žemyn,; žalią mygtuką su brūkšneliu, jei norite nutolinti; arba žalių rodyklių gretimoms žemėlapius.


METAR-TAF: